sensor_id;sensor_type;location;lat;lon;timestamp;P1;durP1;ratioP1;P2;durP2;ratioP2
74898;SDS011;63458;48.210;16.338;2022-10-16T00:02:18;69.53;;;49.88;;
74898;SDS011;63458;48.210;16.338;2022-10-16T00:04:44;58.28;;;44.67;;
74898;SDS011;63458;48.210;16.338;2022-10-16T00:07:10;52.70;;;39.60;;
74898;SDS011;63458;48.210;16.338;2022-10-16T00:09:36;47.75;;;36.45;;
74898;SDS011;63458;48.210;16.338;2022-10-16T00:12:03;45.15;;;33.40;;
74898;SDS011;63458;48.210;16.338;2022-10-16T00:14:31;55.90;;;41.55;;
74898;SDS011;63458;48.210;16.338;2022-10-16T00:16:57;98.43;;;68.68;;
74898;SDS011;63458;48.210;16.338;2022-10-16T00:19:23;125.35;;;84.90;;
74898;SDS011;63458;48.210;16.338;2022-10-16T00:21:49;104.75;;;72.05;;
74898;SDS011;63458;48.210;16.338;2022-10-16T00:24:15;61.13;;;41.50;;
74898;SDS011;63458;48.210;16.338;2022-10-16T00:26:41;51.33;;;37.58;;
74898;SDS011;63458;48.210;16.338;2022-10-16T00:29:08;52.20;;;36.88;;
74898;SDS011;63458;48.210;16.338;2022-10-16T00:31:34;56.30;;;38.25;;
74898;SDS011;63458;48.210;16.338;2022-10-16T00:34:00;53.55;;;38.35;;
74898;SDS011;63458;48.210;16.338;2022-10-16T00:36:27;53.90;;;37.33;;
74898;SDS011;63458;48.210;16.338;2022-10-16T00:38:53;54.55;;;39.15;;
74898;SDS011;63458;48.210;16.338;2022-10-16T00:41:20;53.78;;;36.05;;
74898;SDS011;63458;48.210;16.338;2022-10-16T00:43:48;59.00;;;39.30;;
74898;SDS011;63458;48.210;16.338;2022-10-16T00:46:56;58.20;;;40.90;;
74898;SDS011;63458;48.210;16.338;2022-10-16T00:49:05;58.47;;;38.90;;
74898;SDS011;63458;48.210;16.338;2022-10-16T00:58:49;63.03;;;39.50;;
74898;SDS011;63458;48.210;16.338;2022-10-16T01:01:15;56.00;;;39.30;;
74898;SDS011;63458;48.210;16.338;2022-10-16T01:03:41;57.88;;;40.65;;
74898;SDS011;63458;48.210;16.338;2022-10-16T01:08:58;63.13;;;41.67;;
74898;SDS011;63458;48.210;16.338;2022-10-16T01:16:39;50.40;;;36.00;;
74898;SDS011;63458;48.210;16.338;2022-10-16T01:21:42;49.40;;;33.03;;
74898;SDS011;63458;48.210;16.338;2022-10-16T01:26:46;50.10;;;34.60;;
74898;SDS011;63458;48.210;16.338;2022-10-16T01:31:43;50.05;;;34.33;;
74898;SDS011;63458;48.210;16.338;2022-10-16T01:34:29;65.25;;;41.88;;
74898;SDS011;63458;48.210;16.338;2022-10-16T01:37:00;67.57;;;41.28;;
74898;SDS011;63458;48.210;16.338;2022-10-16T01:39:29;75.50;;;49.08;;
74898;SDS011;63458;48.210;16.338;2022-10-16T01:42:01;51.70;;;35.25;;
74898;SDS011;63458;48.210;16.338;2022-10-16T01:44:30;55.55;;;36.72;;
74898;SDS011;63458;48.210;16.338;2022-10-16T01:46:57;50.30;;;33.50;;
74898;SDS011;63458;48.210;16.338;2022-10-16T01:49:26;49.15;;;35.28;;
74898;SDS011;63458;48.210;16.338;2022-10-16T01:51:54;53.65;;;35.47;;
74898;SDS011;63458;48.210;16.338;2022-10-16T01:54:21;54.25;;;37.78;;
74898;SDS011;63458;48.210;16.338;2022-10-16T01:59:16;49.72;;;32.85;;
74898;SDS011;63458;48.210;16.338;2022-10-16T02:01:44;58.85;;;38.13;;
74898;SDS011;63458;48.210;16.338;2022-10-16T02:04:21;52.47;;;36.50;;
74898;SDS011;63458;48.210;16.338;2022-10-16T02:06:49;48.63;;;34.67;;
74898;SDS011;63458;48.210;16.338;2022-10-16T02:09:15;51.45;;;35.72;;
74898;SDS011;63458;48.210;16.338;2022-10-16T02:11:42;57.55;;;39.92;;
74898;SDS011;63458;48.210;16.338;2022-10-16T02:14:08;52.92;;;36.03;;
74898;SDS011;63458;48.210;16.338;2022-10-16T02:16:42;47.75;;;33.53;;
74898;SDS011;63458;48.210;16.338;2022-10-16T02:19:08;48.45;;;33.35;;
74898;SDS011;63458;48.210;16.338;2022-10-16T02:21:43;47.10;;;32.42;;
74898;SDS011;63458;48.210;16.338;2022-10-16T02:27:00;46.58;;;32.28;;
74898;SDS011;63458;48.210;16.338;2022-10-16T02:29:29;43.55;;;30.33;;
74898;SDS011;63458;48.210;16.338;2022-10-16T02:31:58;41.75;;;31.05;;
74898;SDS011;63458;48.210;16.338;2022-10-16T02:34:25;41.17;;;29.10;;
74898;SDS011;63458;48.210;16.338;2022-10-16T02:36:51;46.25;;;32.35;;
74898;SDS011;63458;48.210;16.338;2022-10-16T02:39:18;42.92;;;29.58;;
74898;SDS011;63458;48.210;16.338;2022-10-16T02:41:45;43.33;;;30.05;;
74898;SDS011;63458;48.210;16.338;2022-10-16T02:44:11;48.03;;;33.35;;
74898;SDS011;63458;48.210;16.338;2022-10-16T02:46:37;50.92;;;37.67;;
74898;SDS011;63458;48.210;16.338;2022-10-16T02:49:03;46.83;;;33.47;;
74898;SDS011;63458;48.210;16.338;2022-10-16T02:51:29;47.22;;;32.70;;
74898;SDS011;63458;48.210;16.338;2022-10-16T02:53:55;39.85;;;29.05;;
74898;SDS011;63458;48.210;16.338;2022-10-16T02:56:21;40.65;;;28.27;;
74898;SDS011;63458;48.210;16.338;2022-10-16T02:58:47;41.05;;;28.85;;
74898;SDS011;63458;48.210;16.338;2022-10-16T03:01:13;41.90;;;27.83;;
74898;SDS011;63458;48.210;16.338;2022-10-16T03:03:41;42.03;;;26.60;;
74898;SDS011;63458;48.210;16.338;2022-10-16T03:06:07;40.60;;;28.70;;
74898;SDS011;63458;48.210;16.338;2022-10-16T03:08:33;37.28;;;26.60;;
74898;SDS011;63458;48.210;16.338;2022-10-16T03:10:59;42.17;;;27.80;;
74898;SDS011;63458;48.210;16.338;2022-10-16T03:13:25;39.67;;;27.58;;
74898;SDS011;63458;48.210;16.338;2022-10-16T03:15:51;36.95;;;26.00;;
74898;SDS011;63458;48.210;16.338;2022-10-16T03:18:17;39.85;;;28.52;;
74898;SDS011;63458;48.210;16.338;2022-10-16T03:20:43;37.38;;;27.40;;
74898;SDS011;63458;48.210;16.338;2022-10-16T03:23:09;38.45;;;27.52;;
74898;SDS011;63458;48.210;16.338;2022-10-16T03:25:35;39.42;;;27.13;;
74898;SDS011;63458;48.210;16.338;2022-10-16T03:28:01;41.13;;;29.42;;
74898;SDS011;63458;48.210;16.338;2022-10-16T03:30:28;36.92;;;27.10;;
74898;SDS011;63458;48.210;16.338;2022-10-16T03:32:54;37.80;;;27.48;;
74898;SDS011;63458;48.210;16.338;2022-10-16T03:35:20;36.88;;;27.77;;
74898;SDS011;63458;48.210;16.338;2022-10-16T03:37:46;38.80;;;27.90;;
74898;SDS011;63458;48.210;16.338;2022-10-16T03:40:12;37.38;;;27.58;;
74898;SDS011;63458;48.210;16.338;2022-10-16T03:42:38;38.80;;;28.23;;
74898;SDS011;63458;48.210;16.338;2022-10-16T03:45:05;38.20;;;27.60;;
74898;SDS011;63458;48.210;16.338;2022-10-16T03:47:31;40.05;;;27.83;;
74898;SDS011;63458;48.210;16.338;2022-10-16T03:49:58;38.55;;;27.20;;
74898;SDS011;63458;48.210;16.338;2022-10-16T03:52:24;38.05;;;27.33;;
74898;SDS011;63458;48.210;16.338;2022-10-16T03:54:50;36.28;;;25.77;;
74898;SDS011;63458;48.210;16.338;2022-10-16T03:57:17;37.10;;;26.25;;
74898;SDS011;63458;48.210;16.338;2022-10-16T03:59:43;32.90;;;24.35;;
74898;SDS011;63458;48.210;16.338;2022-10-16T04:02:09;36.05;;;26.08;;
74898;SDS011;63458;48.210;16.338;2022-10-16T04:04:35;32.13;;;24.08;;
74898;SDS011;63458;48.210;16.338;2022-10-16T04:07:01;33.80;;;24.55;;
74898;SDS011;63458;48.210;16.338;2022-10-16T04:09:27;32.15;;;22.90;;
74898;SDS011;63458;48.210;16.338;2022-10-16T04:11:53;32.60;;;23.23;;
74898;SDS011;63458;48.210;16.338;2022-10-16T04:14:19;31.17;;;23.00;;
74898;SDS011;63458;48.210;16.338;2022-10-16T04:16:45;34.33;;;24.58;;
74898;SDS011;63458;48.210;16.338;2022-10-16T04:19:11;33.55;;;24.67;;
74898;SDS011;63458;48.210;16.338;2022-10-16T04:21:38;32.97;;;23.40;;
74898;SDS011;63458;48.210;16.338;2022-10-16T04:24:04;33.83;;;24.13;;
74898;SDS011;63458;48.210;16.338;2022-10-16T04:26:30;32.92;;;23.83;;
74898;SDS011;63458;48.210;16.338;2022-10-16T04:28:56;34.28;;;24.35;;
74898;SDS011;63458;48.210;16.338;2022-10-16T04:31:22;31.88;;;23.52;;
74898;SDS011;63458;48.210;16.338;2022-10-16T04:33:48;31.58;;;23.23;;
74898;SDS011;63458;48.210;16.338;2022-10-16T04:36:14;33.55;;;24.60;;
74898;SDS011;63458;48.210;16.338;2022-10-16T04:38:40;33.65;;;23.05;;
74898;SDS011;63458;48.210;16.338;2022-10-16T04:41:06;33.55;;;23.73;;
74898;SDS011;63458;48.210;16.338;2022-10-16T04:43:33;35.25;;;24.40;;
74898;SDS011;63458;48.210;16.338;2022-10-16T04:45:59;37.58;;;24.08;;
74898;SDS011;63458;48.210;16.338;2022-10-16T04:48:25;35.65;;;23.27;;
74898;SDS011;63458;48.210;16.338;2022-10-16T04:50:51;33.22;;;21.33;;
74898;SDS011;63458;48.210;16.338;2022-10-16T04:53:17;34.95;;;23.90;;
74898;SDS011;63458;48.210;16.338;2022-10-16T04:55:43;36.50;;;22.60;;
74898;SDS011;63458;48.210;16.338;2022-10-16T04:58:09;40.28;;;24.25;;
74898;SDS011;63458;48.210;16.338;2022-10-16T05:00:36;36.95;;;23.50;;
74898;SDS011;63458;48.210;16.338;2022-10-16T05:03:03;39.33;;;24.17;;
74898;SDS011;63458;48.210;16.338;2022-10-16T05:05:32;40.63;;;24.67;;
74898;SDS011;63458;48.210;16.338;2022-10-16T05:07:58;40.58;;;23.20;;
74898;SDS011;63458;48.210;16.338;2022-10-16T05:10:24;41.25;;;26.58;;
74898;SDS011;63458;48.210;16.338;2022-10-16T05:12:50;41.33;;;25.10;;
74898;SDS011;63458;48.210;16.338;2022-10-16T05:15:17;39.28;;;23.83;;
74898;SDS011;63458;48.210;16.338;2022-10-16T05:17:43;41.35;;;24.05;;
74898;SDS011;63458;48.210;16.338;2022-10-16T05:20:09;41.47;;;25.70;;
74898;SDS011;63458;48.210;16.338;2022-10-16T05:22:35;41.65;;;25.02;;
74898;SDS011;63458;48.210;16.338;2022-10-16T05:25:01;40.08;;;23.90;;
74898;SDS011;63458;48.210;16.338;2022-10-16T05:27:27;40.22;;;24.38;;
74898;SDS011;63458;48.210;16.338;2022-10-16T05:29:53;37.05;;;23.02;;
74898;SDS011;63458;48.210;16.338;2022-10-16T05:32:19;38.15;;;23.60;;
74898;SDS011;63458;48.210;16.338;2022-10-16T05:34:45;39.20;;;23.02;;
74898;SDS011;63458;48.210;16.338;2022-10-16T05:37:12;40.28;;;23.55;;
74898;SDS011;63458;48.210;16.338;2022-10-16T05:39:38;38.05;;;24.48;;
74898;SDS011;63458;48.210;16.338;2022-10-16T05:42:04;35.22;;;23.08;;
74898;SDS011;63458;48.210;16.338;2022-10-16T05:44:31;35.00;;;22.50;;
74898;SDS011;63458;48.210;16.338;2022-10-16T05:46:57;34.05;;;21.98;;
74898;SDS011;63458;48.210;16.338;2022-10-16T05:49:23;29.75;;;21.40;;
74898;SDS011;63458;48.210;16.338;2022-10-16T05:51:49;30.33;;;20.42;;
74898;SDS011;63458;48.210;16.338;2022-10-16T05:54:15;30.13;;;20.33;;
74898;SDS011;63458;48.210;16.338;2022-10-16T05:56:41;27.95;;;19.77;;
74898;SDS011;63458;48.210;16.338;2022-10-16T05:59:07;33.17;;;22.13;;
74898;SDS011;63458;48.210;16.338;2022-10-16T06:01:33;31.90;;;21.98;;
74898;SDS011;63458;48.210;16.338;2022-10-16T06:04:00;31.38;;;21.95;;
74898;SDS011;63458;48.210;16.338;2022-10-16T06:06:27;35.10;;;23.38;;
74898;SDS011;63458;48.210;16.338;2022-10-16T06:08:53;35.58;;;22.48;;
74898;SDS011;63458;48.210;16.338;2022-10-16T06:11:21;35.95;;;23.52;;
74898;SDS011;63458;48.210;16.338;2022-10-16T06:13:50;36.00;;;23.27;;
74898;SDS011;63458;48.210;16.338;2022-10-16T06:16:16;40.10;;;25.60;;
74898;SDS011;63458;48.210;16.338;2022-10-16T06:18:42;34.33;;;23.55;;
74898;SDS011;63458;48.210;16.338;2022-10-16T06:21:10;43.78;;;25.48;;
74898;SDS011;63458;48.210;16.338;2022-10-16T06:23:36;35.33;;;23.35;;
74898;SDS011;63458;48.210;16.338;2022-10-16T06:26:09;37.25;;;23.15;;
74898;SDS011;63458;48.210;16.338;2022-10-16T06:28:36;41.47;;;25.92;;
74898;SDS011;63458;48.210;16.338;2022-10-16T06:31:02;38.00;;;24.25;;
74898;SDS011;63458;48.210;16.338;2022-10-16T06:33:29;37.90;;;26.30;;
74898;SDS011;63458;48.210;16.338;2022-10-16T06:36:05;37.75;;;25.88;;
74898;SDS011;63458;48.210;16.338;2022-10-16T06:38:31;34.90;;;24.83;;
74898;SDS011;63458;48.210;16.338;2022-10-16T06:40:57;37.50;;;24.48;;
74898;SDS011;63458;48.210;16.338;2022-10-16T06:43:24;35.53;;;23.20;;
74898;SDS011;63458;48.210;16.338;2022-10-16T06:45:54;38.45;;;25.48;;
74898;SDS011;63458;48.210;16.338;2022-10-16T06:48:21;39.78;;;25.70;;
74898;SDS011;63458;48.210;16.338;2022-10-16T06:53:22;39.00;;;26.20;;
74898;SDS011;63458;48.210;16.338;2022-10-16T06:55:48;40.45;;;27.42;;
74898;SDS011;63458;48.210;16.338;2022-10-16T06:58:14;41.85;;;29.75;;
74898;SDS011;63458;48.210;16.338;2022-10-16T07:00:40;44.92;;;28.00;;
74898;SDS011;63458;48.210;16.338;2022-10-16T07:03:06;38.42;;;26.60;;
74898;SDS011;63458;48.210;16.338;2022-10-16T07:05:36;41.75;;;27.63;;
74898;SDS011;63458;48.210;16.338;2022-10-16T07:08:03;46.10;;;29.33;;
74898;SDS011;63458;48.210;16.338;2022-10-16T07:10:30;44.63;;;31.15;;
74898;SDS011;63458;48.210;16.338;2022-10-16T07:12:56;47.20;;;32.67;;
74898;SDS011;63458;48.210;16.338;2022-10-16T07:15:22;44.33;;;28.15;;
74898;SDS011;63458;48.210;16.338;2022-10-16T07:17:49;47.25;;;31.25;;
74898;SDS011;63458;48.210;16.338;2022-10-16T07:20:15;43.88;;;30.70;;
74898;SDS011;63458;48.210;16.338;2022-10-16T07:22:41;48.30;;;31.60;;
74898;SDS011;63458;48.210;16.338;2022-10-16T07:25:07;43.08;;;29.50;;
74898;SDS011;63458;48.210;16.338;2022-10-16T07:27:33;40.88;;;29.73;;
74898;SDS011;63458;48.210;16.338;2022-10-16T07:29:59;43.97;;;29.58;;
74898;SDS011;63458;48.210;16.338;2022-10-16T07:32:26;43.90;;;28.55;;
74898;SDS011;63458;48.210;16.338;2022-10-16T07:34:52;46.70;;;32.83;;
74898;SDS011;63458;48.210;16.338;2022-10-16T07:37:20;37.13;;;26.50;;
74898;SDS011;63458;48.210;16.338;2022-10-16T07:39:46;46.17;;;29.88;;
74898;SDS011;63458;48.210;16.338;2022-10-16T07:42:12;45.92;;;29.85;;
74898;SDS011;63458;48.210;16.338;2022-10-16T07:44:38;42.95;;;30.10;;
74898;SDS011;63458;48.210;16.338;2022-10-16T07:47:05;40.95;;;29.00;;
74898;SDS011;63458;48.210;16.338;2022-10-16T07:49:31;39.40;;;27.77;;
74898;SDS011;63458;48.210;16.338;2022-10-16T07:51:57;43.78;;;30.73;;
74898;SDS011;63458;48.210;16.338;2022-10-16T07:54:23;39.78;;;27.17;;
74898;SDS011;63458;48.210;16.338;2022-10-16T07:56:49;42.30;;;30.42;;
74898;SDS011;63458;48.210;16.338;2022-10-16T07:59:15;42.50;;;30.52;;
74898;SDS011;63458;48.210;16.338;2022-10-16T08:01:41;44.10;;;30.83;;
74898;SDS011;63458;48.210;16.338;2022-10-16T08:04:08;49.90;;;35.58;;
74898;SDS011;63458;48.210;16.338;2022-10-16T08:06:38;51.25;;;35.35;;
74898;SDS011;63458;48.210;16.338;2022-10-16T08:09:04;44.67;;;30.25;;
74898;SDS011;63458;48.210;16.338;2022-10-16T08:11:30;45.25;;;30.85;;
74898;SDS011;63458;48.210;16.338;2022-10-16T08:13:56;42.50;;;29.58;;
74898;SDS011;63458;48.210;16.338;2022-10-16T08:16:22;45.67;;;31.63;;
74898;SDS011;63458;48.210;16.338;2022-10-16T08:18:48;41.22;;;28.42;;
74898;SDS011;63458;48.210;16.338;2022-10-16T08:21:17;45.35;;;32.20;;
74898;SDS011;63458;48.210;16.338;2022-10-16T08:23:43;51.45;;;33.88;;
74898;SDS011;63458;48.210;16.338;2022-10-16T08:26:10;46.08;;;32.60;;
74898;SDS011;63458;48.210;16.338;2022-10-16T08:28:36;47.20;;;30.90;;
74898;SDS011;63458;48.210;16.338;2022-10-16T08:31:06;57.67;;;40.17;;
74898;SDS011;63458;48.210;16.338;2022-10-16T08:33:32;45.40;;;31.98;;
74898;SDS011;63458;48.210;16.338;2022-10-16T08:36:00;44.60;;;29.63;;
74898;SDS011;63458;48.210;16.338;2022-10-16T08:38:26;42.13;;;28.17;;
74898;SDS011;63458;48.210;16.338;2022-10-16T08:40:52;43.22;;;29.98;;
74898;SDS011;63458;48.210;16.338;2022-10-16T08:43:35;52.58;;;36.38;;
74898;SDS011;63458;48.210;16.338;2022-10-16T08:46:15;41.33;;;28.48;;
74898;SDS011;63458;48.210;16.338;2022-10-16T08:48:46;41.17;;;30.92;;
74898;SDS011;63458;48.210;16.338;2022-10-16T08:51:23;43.22;;;30.63;;
74898;SDS011;63458;48.210;16.338;2022-10-16T08:56:16;36.75;;;26.38;;
74898;SDS011;63458;48.210;16.338;2022-10-16T08:58:43;42.03;;;29.08;;
74898;SDS011;63458;48.210;16.338;2022-10-16T09:01:14;39.00;;;29.08;;
74898;SDS011;63458;48.210;16.338;2022-10-16T09:14:15;39.38;;;28.25;;
74898;SDS011;63458;48.210;16.338;2022-10-16T09:16:46;42.80;;;29.58;;
74898;SDS011;63458;48.210;16.338;2022-10-16T09:19:15;41.45;;;28.35;;
74898;SDS011;63458;48.210;16.338;2022-10-16T09:21:43;39.55;;;28.73;;
74898;SDS011;63458;48.210;16.338;2022-10-16T09:24:17;39.42;;;28.38;;
74898;SDS011;63458;48.210;16.338;2022-10-16T09:31:35;37.25;;;27.42;;
74898;SDS011;63458;48.210;16.338;2022-10-16T09:34:02;41.83;;;31.33;;
74898;SDS011;63458;48.210;16.338;2022-10-16T09:36:32;37.42;;;28.10;;
74898;SDS011;63458;48.210;16.338;2022-10-16T09:39:05;40.53;;;29.05;;
74898;SDS011;63458;48.210;16.338;2022-10-16T09:41:33;37.13;;;29.38;;
74898;SDS011;63458;48.210;16.338;2022-10-16T09:44:00;39.03;;;29.95;;
74898;SDS011;63458;48.210;16.338;2022-10-16T09:49:03;35.90;;;27.40;;
74898;SDS011;63458;48.210;16.338;2022-10-16T09:51:32;38.28;;;28.80;;
74898;SDS011;63458;48.210;16.338;2022-10-16T09:54:21;37.45;;;27.33;;
74898;SDS011;63458;48.210;16.338;2022-10-16T09:56:46;35.17;;;26.17;;
74898;SDS011;63458;48.210;16.338;2022-10-16T09:59:20;34.17;;;25.98;;
74898;SDS011;63458;48.210;16.338;2022-10-16T10:01:49;39.78;;;29.75;;
74898;SDS011;63458;48.210;16.338;2022-10-16T10:04:16;38.45;;;28.58;;
74898;SDS011;63458;48.210;16.338;2022-10-16T10:06:44;36.83;;;28.25;;
74898;SDS011;63458;48.210;16.338;2022-10-16T10:09:23;36.83;;;29.23;;
74898;SDS011;63458;48.210;16.338;2022-10-16T10:11:56;35.45;;;25.95;;
74898;SDS011;63458;48.210;16.338;2022-10-16T10:16:53;38.20;;;27.75;;
74898;SDS011;63458;48.210;16.338;2022-10-16T10:19:27;36.35;;;27.42;;
74898;SDS011;63458;48.210;16.338;2022-10-16T10:21:53;35.47;;;27.42;;
74898;SDS011;63458;48.210;16.338;2022-10-16T10:24:19;37.15;;;28.35;;
74898;SDS011;63458;48.210;16.338;2022-10-16T10:26:50;37.80;;;26.67;;
74898;SDS011;63458;48.210;16.338;2022-10-16T10:29:28;34.60;;;26.58;;
74898;SDS011;63458;48.210;16.338;2022-10-16T10:37:17;39.25;;;28.23;;
74898;SDS011;63458;48.210;16.338;2022-10-16T10:50:14;45.67;;;32.35;;
74898;SDS011;63458;48.210;16.338;2022-10-16T10:55:46;44.85;;;33.97;;
74898;SDS011;63458;48.210;16.338;2022-10-16T11:01:09;37.03;;;27.67;;
74898;SDS011;63458;48.210;16.338;2022-10-16T11:06:06;57.33;;;41.30;;
74898;SDS011;63458;48.210;16.338;2022-10-16T11:08:35;38.13;;;28.52;;
74898;SDS011;63458;48.210;16.338;2022-10-16T11:11:03;37.95;;;27.38;;
74898;SDS011;63458;48.210;16.338;2022-10-16T11:13:35;38.90;;;27.02;;
74898;SDS011;63458;48.210;16.338;2022-10-16T11:16:08;38.13;;;26.83;;
74898;SDS011;63458;48.210;16.338;2022-10-16T11:21:04;38.58;;;28.15;;
74898;SDS011;63458;48.210;16.338;2022-10-16T11:26:10;88.78;;;58.65;;
74898;SDS011;63458;48.210;16.338;2022-10-16T11:28:51;45.97;;;34.38;;
74898;SDS011;63458;48.210;16.338;2022-10-16T11:31:32;44.28;;;31.50;;
74898;SDS011;63458;48.210;16.338;2022-10-16T11:34:44;65.50;;;44.08;;
74898;SDS011;63458;48.210;16.338;2022-10-16T11:36:47;44.75;;;32.13;;
74898;SDS011;63458;48.210;16.338;2022-10-16T11:39:27;37.78;;;28.05;;
74898;SDS011;63458;48.210;16.338;2022-10-16T11:49:47;34.90;;;27.90;;
74898;SDS011;63458;48.210;16.338;2022-10-16T11:57:16;44.15;;;33.83;;
74898;SDS011;63458;48.210;16.338;2022-10-16T12:02:17;39.13;;;29.45;;
74898;SDS011;63458;48.210;16.338;2022-10-16T12:04:49;36.58;;;28.33;;
74898;SDS011;63458;48.210;16.338;2022-10-16T12:07:21;35.05;;;28.08;;
74898;SDS011;63458;48.210;16.338;2022-10-16T12:09:49;35.22;;;27.45;;
74898;SDS011;63458;48.210;16.338;2022-10-16T12:12:36;36.25;;;28.73;;
74898;SDS011;63458;48.210;16.338;2022-10-16T12:15:25;37.45;;;29.15;;
74898;SDS011;63458;48.210;16.338;2022-10-16T12:17:49;35.95;;;28.42;;
74898;SDS011;63458;48.210;16.338;2022-10-16T12:20:20;35.88;;;28.92;;
74898;SDS011;63458;48.210;16.338;2022-10-16T12:22:54;34.50;;;28.67;;
74898;SDS011;63458;48.210;16.338;2022-10-16T12:27:53;38.50;;;28.20;;
74898;SDS011;63458;48.210;16.338;2022-10-16T12:30:23;38.03;;;29.45;;
74898;SDS011;63458;48.210;16.338;2022-10-16T12:32:54;38.13;;;30.13;;
74898;SDS011;63458;48.210;16.338;2022-10-16T12:35:25;44.40;;;34.95;;
74898;SDS011;63458;48.210;16.338;2022-10-16T12:37:52;39.05;;;32.45;;
74898;SDS011;63458;48.210;16.338;2022-10-16T12:42:50;39.92;;;30.50;;
74898;SDS011;63458;48.210;16.338;2022-10-16T12:45:24;36.42;;;29.67;;
74898;SDS011;63458;48.210;16.338;2022-10-16T12:47:51;38.75;;;31.25;;
74898;SDS011;63458;48.210;16.338;2022-10-16T12:50:34;37.30;;;31.17;;
74898;SDS011;63458;48.210;16.338;2022-10-16T12:53:01;34.28;;;27.73;;
74898;SDS011;63458;48.210;16.338;2022-10-16T12:55:31;37.70;;;30.75;;
74898;SDS011;63458;48.210;16.338;2022-10-16T12:58:20;38.17;;;31.77;;
74898;SDS011;63458;48.210;16.338;2022-10-16T13:00:51;36.45;;;30.08;;
74898;SDS011;63458;48.210;16.338;2022-10-16T13:03:23;55.17;;;42.40;;
74898;SDS011;63458;48.210;16.338;2022-10-16T13:24:06;46.42;;;38.83;;
74898;SDS011;63458;48.210;16.338;2022-10-16T13:29:05;42.03;;;36.28;;
74898;SDS011;63458;48.210;16.338;2022-10-16T13:31:31;40.58;;;35.35;;
74898;SDS011;63458;48.210;16.338;2022-10-16T13:33:59;45.03;;;36.03;;
74898;SDS011;63458;48.210;16.338;2022-10-16T13:41:36;40.42;;;32.75;;
74898;SDS011;63458;48.210;16.338;2022-10-16T13:44:02;41.53;;;35.22;;
74898;SDS011;63458;48.210;16.338;2022-10-16T13:46:28;39.50;;;31.73;;
74898;SDS011;63458;48.210;16.338;2022-10-16T13:49:03;50.28;;;41.25;;
74898;SDS011;63458;48.210;16.338;2022-10-16T13:51:29;41.42;;;36.20;;
74898;SDS011;63458;48.210;16.338;2022-10-16T13:53:56;42.80;;;35.20;;
74898;SDS011;63458;48.210;16.338;2022-10-16T13:56:24;40.88;;;33.20;;
74898;SDS011;63458;48.210;16.338;2022-10-16T13:59:04;43.67;;;33.72;;
74898;SDS011;63458;48.210;16.338;2022-10-16T14:01:34;39.88;;;32.72;;
74898;SDS011;63458;48.210;16.338;2022-10-16T14:04:05;36.35;;;30.52;;
74898;SDS011;63458;48.210;16.338;2022-10-16T14:06:32;39.20;;;32.03;;
74898;SDS011;63458;48.210;16.338;2022-10-16T14:09:05;38.58;;;30.67;;
74898;SDS011;63458;48.210;16.338;2022-10-16T14:11:32;39.90;;;29.52;;
74898;SDS011;63458;48.210;16.338;2022-10-16T14:13:59;35.50;;;28.58;;
74898;SDS011;63458;48.210;16.338;2022-10-16T14:16:27;34.75;;;27.83;;
74898;SDS011;63458;48.210;16.338;2022-10-16T14:19:03;39.13;;;29.08;;
74898;SDS011;63458;48.210;16.338;2022-10-16T14:21:35;38.47;;;28.42;;
74898;SDS011;63458;48.210;16.338;2022-10-16T14:24:10;36.75;;;29.23;;
74898;SDS011;63458;48.210;16.338;2022-10-16T14:26:40;36.97;;;28.30;;
74898;SDS011;63458;48.210;16.338;2022-10-16T14:29:13;35.35;;;27.35;;
74898;SDS011;63458;48.210;16.338;2022-10-16T14:31:40;29.67;;;24.08;;
74898;SDS011;63458;48.210;16.338;2022-10-16T14:34:25;34.60;;;26.58;;
74898;SDS011;63458;48.210;16.338;2022-10-16T14:36:52;37.22;;;27.25;;
74898;SDS011;63458;48.210;16.338;2022-10-16T14:39:19;36.08;;;26.80;;
74898;SDS011;63458;48.210;16.338;2022-10-16T14:41:49;36.08;;;27.05;;
74898;SDS011;63458;48.210;16.338;2022-10-16T14:44:19;36.50;;;27.25;;
74898;SDS011;63458;48.210;16.338;2022-10-16T14:46:47;34.00;;;25.73;;
74898;SDS011;63458;48.210;16.338;2022-10-16T14:49:17;35.40;;;26.08;;
74898;SDS011;63458;48.210;16.338;2022-10-16T14:51:47;33.10;;;25.35;;
74898;SDS011;63458;48.210;16.338;2022-10-16T14:54:14;34.28;;;26.08;;
74898;SDS011;63458;48.210;16.338;2022-10-16T14:56:42;31.58;;;24.63;;
74898;SDS011;63458;48.210;16.338;2022-10-16T14:59:17;29.25;;;23.38;;
74898;SDS011;63458;48.210;16.338;2022-10-16T15:01:44;32.22;;;25.27;;
74898;SDS011;63458;48.210;16.338;2022-10-16T15:04:11;31.98;;;24.42;;
74898;SDS011;63458;48.210;16.338;2022-10-16T15:06:38;31.20;;;24.40;;
74898;SDS011;63458;48.210;16.338;2022-10-16T15:09:04;31.92;;;24.88;;
74898;SDS011;63458;48.210;16.338;2022-10-16T15:11:30;33.15;;;25.02;;
74898;SDS011;63458;48.210;16.338;2022-10-16T15:13:58;31.65;;;23.90;;
74898;SDS011;63458;48.210;16.338;2022-10-16T15:16:24;34.33;;;25.17;;
74898;SDS011;63458;48.210;16.338;2022-10-16T15:18:50;32.38;;;25.42;;
74898;SDS011;63458;48.210;16.338;2022-10-16T15:23:43;35.28;;;25.52;;
74898;SDS011;63458;48.210;16.338;2022-10-16T15:26:09;31.30;;;24.00;;
74898;SDS011;63458;48.210;16.338;2022-10-16T15:28:35;32.67;;;23.90;;
74898;SDS011;63458;48.210;16.338;2022-10-16T15:31:01;31.63;;;24.65;;
74898;SDS011;63458;48.210;16.338;2022-10-16T15:33:30;31.90;;;23.88;;
74898;SDS011;63458;48.210;16.338;2022-10-16T15:35:59;29.25;;;23.55;;
74898;SDS011;63458;48.210;16.338;2022-10-16T15:38:25;34.05;;;25.38;;
74898;SDS011;63458;48.210;16.338;2022-10-16T15:40:52;32.03;;;24.15;;
74898;SDS011;63458;48.210;16.338;2022-10-16T15:43:18;30.85;;;22.63;;
74898;SDS011;63458;48.210;16.338;2022-10-16T15:45:44;29.70;;;22.85;;
74898;SDS011;63458;48.210;16.338;2022-10-16T15:48:18;33.63;;;22.95;;
74898;SDS011;63458;48.210;16.338;2022-10-16T15:50:44;32.35;;;24.50;;
74898;SDS011;63458;48.210;16.338;2022-10-16T15:53:10;31.77;;;24.05;;
74898;SDS011;63458;48.210;16.338;2022-10-16T15:55:36;30.58;;;23.25;;
74898;SDS011;63458;48.210;16.338;2022-10-16T15:58:02;31.80;;;23.67;;
74898;SDS011;63458;48.210;16.338;2022-10-16T16:00:29;32.90;;;22.85;;
74898;SDS011;63458;48.210;16.338;2022-10-16T16:02:55;28.45;;;22.40;;
74898;SDS011;63458;48.210;16.338;2022-10-16T16:05:22;29.65;;;23.02;;
74898;SDS011;63458;48.210;16.338;2022-10-16T16:07:48;30.80;;;23.90;;
74898;SDS011;63458;48.210;16.338;2022-10-16T16:10:15;32.42;;;25.52;;
74898;SDS011;63458;48.210;16.338;2022-10-16T16:12:41;29.90;;;22.38;;
74898;SDS011;63458;48.210;16.338;2022-10-16T16:15:08;31.40;;;25.30;;
74898;SDS011;63458;48.210;16.338;2022-10-16T16:17:34;46.60;;;34.03;;
74898;SDS011;63458;48.210;16.338;2022-10-16T16:20:01;36.78;;;29.23;;
74898;SDS011;63458;48.210;16.338;2022-10-16T16:22:28;32.35;;;24.73;;
74898;SDS011;63458;48.210;16.338;2022-10-16T16:24:54;31.60;;;24.10;;
74898;SDS011;63458;48.210;16.338;2022-10-16T16:27:20;31.15;;;24.77;;